Time;durP1;ratioP1;P1;durP2;ratioP2;P2;SDS_P1;SDS_P2;PMS_P1;PMS_P2;Temp;Humidity;BMP_temperature;BMP_pressure;BME280_temperature;BME280_humidity;BME280_pressure;Samples;Min_cycle;Max_cycle;Signal;HPM_P1;HPM_P2
2022/07/06 00:02:27;;;;;;;;;;;;;;;24.91;55.80;100595.44;7407682;19;1715;-64
2022/07/06 00:04:55;;;;;;;;;;;;;;;24.87;55.97;100621.16;7409539;19;1534;-64
2022/07/06 00:07:23;;;;;;;;;;;;;;;24.71;55.80;100634.75;7409427;19;1837;-64
2022/07/06 00:09:52;;;;;;;;;;;;;;;24.70;56.13;100622.25;7410564;19;1700;-64
2022/07/06 00:12:20;;;;;;;;;;;;;;;24.79;55.81;100607.69;7410837;19;1519;-64
2022/07/06 00:14:48;;;;;;;;;;;;;;;24.75;56.25;100600.91;7410800;19;1575;-65
2022/07/06 00:17:19;;;;;;;;;;;;;;;24.76;56.28;100591.78;7409815;19;1600;-65
2022/07/06 00:19:48;;;;;;;;;;;;;;;24.78;56.34;100595.16;7409470;19;1547;-64
2022/07/06 00:22:16;;;;;;;;;;;;;;;24.77;55.95;100594.31;7407304;19;1682;-64
2022/07/06 00:24:44;;;;;;;;;;;;;;;24.83;55.83;100602.72;7409912;19;1613;-64
2022/07/06 00:27:13;;;;;;;;;;;;;;;24.78;55.28;100605.97;7407059;19;1865;-64
2022/07/06 00:29:43;;;;;;;;;;;;;;;24.84;55.63;100604.44;7410070;19;1542;-65
2022/07/06 00:32:12;;;;;;;;;;;;;;;24.82;55.60;100588.38;7409141;19;1607;-65
2022/07/06 00:34:42;;;;;;;;;;;;;;;24.85;55.77;100604.25;7407293;19;1451;-65
2022/07/06 00:37:11;;;;;;;;;;;;;;;24.85;55.71;100617.78;7409434;19;1447;-65
2022/07/06 00:39:39;;;;;;;;;;;;;;;24.83;55.62;100592.78;7409476;19;1652;-65
2022/07/06 00:42:08;;;;;;;;;;;;;;;24.78;55.53;100598.69;7409227;19;1625;-65
2022/07/06 00:44:36;;;;;;;;;;;;;;;24.80;55.82;100598.53;7408188;19;1483;-65
2022/07/06 00:47:07;;;;;;;;;;;;;;;24.78;55.66;100612.22;7408065;19;1865;-65
2022/07/06 00:52:19;;;;;;;;;;;;;;;24.77;55.99;100597.03;7409886;19;1439;-65
2022/07/06 00:54:48;;;;;;;;;;;;;;;24.81;55.59;100608.34;7408869;19;1724;-64
2022/07/06 00:57:16;;;;;;;;;;;;;;;24.80;55.58;100603.94;7409365;19;1527;-64
2022/07/06 00:59:45;;;;;;;;;;;;;;;24.78;55.86;100608.69;7409666;19;1510;-64
2022/07/06 01:02:13;;;;;;;;;;;;;;;24.82;55.60;100591.09;7406641;19;1652;-65
2022/07/06 01:04:41;;;;;;;;;;;;;;;24.75;55.52;100590.97;7408845;19;1476;-65
2022/07/06 01:07:10;;;;;;;;;;;;;;;24.69;55.96;100607.03;7406533;19;1857;-64
2022/07/06 01:09:41;;;;;;;;;;;;;;;24.67;56.87;100612.66;7409012;19;1600;-64
2022/07/06 01:12:10;;;;;;;;;;;;;;;24.70;57.45;100603.31;7409021;19;1464;-66
2022/07/06 01:14:39;;;;;;;;;;;;;;;24.73;57.42;100594.84;7408544;19;1542;-63
2022/07/06 01:17:07;;;;;;;;;;;;;;;24.70;57.80;100601.47;7407530;19;1763;-63
2022/07/06 01:19:36;;;;;;;;;;;;;;;24.70;58.24;100592.50;7409270;19;1549;-63
2022/07/06 01:22:07;;;;;;;;;;;;;;;24.69;58.73;100609.75;7408478;19;1526;-64
2022/07/06 01:24:37;;;;;;;;;;;;;;;24.74;58.49;100577.59;7408950;19;1575;-64
2022/07/06 01:27:06;;;;;;;;;;;;;;;24.80;58.32;100588.53;7407253;19;1852;-63
2022/07/06 01:29:35;;;;;;;;;;;;;;;24.79;58.52;100583.34;7407939;19;1470;-66
2022/07/06 01:32:04;;;;;;;;;;;;;;;24.79;58.36;100599.56;7405021;19;1876;-63
2022/07/06 01:34:34;;;;;;;;;;;;;;;24.80;58.52;100598.53;7407057;19;1518;-65
2022/07/06 01:37:03;;;;;;;;;;;;;;;24.77;58.95;100596.16;7407319;19;1670;-64
2022/07/06 01:39:34;;;;;;;;;;;;;;;24.75;59.05;100585.56;7408061;19;1506;-64
2022/07/06 01:42:02;;;;;;;;;;;;;;;24.77;58.64;100588.91;7406371;19;1538;-64
2022/07/06 01:44:31;;;;;;;;;;;;;;;24.81;58.96;100584.00;7407455;19;1769;-64
2022/07/06 01:46:59;;;;;;;;;;;;;;;24.70;59.44;100577.13;7406693;19;1857;-64
2022/07/06 01:49:27;;;;;;;;;;;;;;;24.67;59.92;100590.16;7408209;19;1607;-64
2022/07/06 01:51:56;;;;;;;;;;;;;;;24.62;59.71;100582.56;7407844;19;1466;-64
2022/07/06 01:54:24;;;;;;;;;;;;;;;24.57;60.36;100588.53;7406844;19;1741;-64
2022/07/06 01:56:55;;;;;;;;;;;;;;;24.54;60.42;100583.47;7404454;19;1530;-64
2022/07/06 01:59:24;;;;;;;;;;;;;;;24.52;60.52;100568.44;7407311;19;1749;-65
2022/07/06 02:01:52;;;;;;;;;;;;;;;24.52;60.33;100574.69;7395890;19;1617;-64
2022/07/06 02:04:20;;;;;;;;;;;;;;;24.50;60.52;100587.53;7403232;19;1712;-64
2022/07/06 02:06:49;;;;;;;;;;;;;;;24.52;60.62;100590.06;7404958;19;1522;-63
2022/07/06 02:09:17;;;;;;;;;;;;;;;24.55;60.88;100595.97;7403927;19;1862;-65
2022/07/06 02:11:45;;;;;;;;;;;;;;;24.60;60.43;100573.81;7406068;19;1656;-64
2022/07/06 02:14:17;;;;;;;;;;;;;;;24.56;60.75;100580.59;7406307;19;1646;-64
2022/07/06 02:16:45;;;;;;;;;;;;;;;24.54;60.85;100569.09;7405609;19;1650;-64
2022/07/06 02:19:13;;;;;;;;;;;;;;;24.64;60.74;100583.25;7405782;19;1629;-65
2022/07/06 02:21:42;;;;;;;;;;;;;;;24.68;60.50;100579.16;7405894;19;1683;-64
2022/07/06 02:24:10;;;;;;;;;;;;;;;24.63;60.80;100581.56;7404167;19;1467;-65
2022/07/06 02:26:38;;;;;;;;;;;;;;;24.59;60.63;100591.88;7405097;19;1538;-64
2022/07/06 02:29:07;;;;;;;;;;;;;;;24.74;60.75;100589.25;7403779;19;1870;-64
2022/07/06 02:31:38;;;;;;;;;;;;;;;24.68;60.60;100592.69;7404597;19;1606;-64
2022/07/06 02:34:06;;;;;;;;;;;;;;;24.66;60.87;100602.00;7403286;19;1514;-64
2022/07/06 02:36:35;;;;;;;;;;;;;;;24.70;60.78;100600.63;7401956;19;1531;-64
2022/07/06 02:39:03;;;;;;;;;;;;;;;24.69;60.66;100585.41;7405841;19;1439;-64
2022/07/06 02:41:32;;;;;;;;;;;;;;;24.69;60.67;100580.00;7405791;19;1439;-65
2022/07/06 02:44:00;;;;;;;;;;;;;;;24.78;60.24;100590.59;7404109;19;1689;-62
2022/07/06 02:46:28;;;;;;;;;;;;;;;24.76;60.82;100578.28;7404037;19;1527;-62
2022/07/06 02:48:59;;;;;;;;;;;;;;;24.71;60.65;100573.41;7404604;19;1860;-64
2022/07/06 02:51:28;;;;;;;;;;;;;;;24.76;60.85;100591.78;7405135;19;1765;-63
2022/07/06 02:53:56;;;;;;;;;;;;;;;24.76;60.48;100581.81;7402797;19;1633;-63
2022/07/06 02:56:25;;;;;;;;;;;;;;;24.71;60.89;100570.69;7400789;19;1673;-64
2022/07/06 02:58:53;;;;;;;;;;;;;;;24.82;60.29;100585.66;7401435;19;1467;-64
2022/07/06 03:01:21;;;;;;;;;;;;;;;24.80;60.08;100582.31;7400225;19;1586;-64
2022/07/06 03:03:50;;;;;;;;;;;;;;;24.78;60.57;100576.22;7401750;19;1440;-63
2022/07/06 03:06:20;;;;;;;;;;;;;;;24.66;60.84;100575.78;7401964;19;1574;-64
2022/07/06 03:08:49;;;;;;;;;;;;;;;24.59;60.84;100588.31;7413851;19;1876;-64
2022/07/06 03:11:17;;;;;;;;;;;;;;;24.63;61.04;100586.13;7418490;19;1644;-63
2022/07/06 03:13:46;;;;;;;;;;;;;;;24.55;61.04;100584.28;7418762;19;1460;-63
2022/07/06 03:16:14;;;;;;;;;;;;;;;24.53;60.95;100572.81;7418925;19;1634;-64
2022/07/06 03:18:42;;;;;;;;;;;;;;;24.59;61.23;100585.63;7419252;19;1629;-64
2022/07/06 03:21:11;;;;;;;;;;;;;;;24.64;60.97;100579.69;7415379;19;1685;-63
2022/07/06 03:23:42;;;;;;;;;;;;;;;24.54;61.28;100571.81;7417334;19;1237;-64
2022/07/06 03:26:10;;;;;;;;;;;;;;;24.53;61.30;100584.50;7418088;19;1464;-63
2022/07/06 03:28:39;;;;;;;;;;;;;;;24.63;61.26;100596.94;7416939;19;1862;-63
2022/07/06 03:31:07;;;;;;;;;;;;;;;24.67;61.05;100593.72;7418075;19;1542;-64
2022/07/06 03:33:35;;;;;;;;;;;;;;;24.65;61.28;100594.88;7419554;19;1588;-64
2022/07/06 03:36:04;;;;;;;;;;;;;;;24.76;60.82;100580.97;7417673;19;1529;-63
2022/07/06 03:38:33;;;;;;;;;;;;;;;24.78;61.04;100584.34;7416746;19;1661;-64
2022/07/06 03:41:04;;;;;;;;;;;;;;;24.81;60.62;100584.00;7417541;19;1649;-64
2022/07/06 03:43:32;;;;;;;;;;;;;;;24.84;60.47;100591.75;7417655;19;1523;-65
2022/07/06 03:46:01;;;;;;;;;;;;;;;24.89;60.41;100586.66;7418672;19;1471;-64
2022/07/06 03:48:29;;;;;;;;;;;;;;;24.92;60.55;100574.63;7417519;19;1860;-63
2022/07/06 03:50:57;;;;;;;;;;;;;;;24.85;61.02;100579.06;7418396;19;1605;-64
2022/07/06 03:53:26;;;;;;;;;;;;;;;24.85;60.98;100566.41;7417340;19;1744;-63
2022/07/06 03:58:37;;;;;;;;;;;;;;;24.95;60.74;100571.56;7413793;19;1479;-63
2022/07/06 04:01:06;;;;;;;;;;;;;;;24.99;60.63;100562.91;7416578;19;1538;-64
2022/07/06 04:03:34;;;;;;;;;;;;;;;25.00;60.87;100577.28;7415545;19;1471;-63
2022/07/06 04:06:02;;;;;;;;;;;;;;;25.01;60.95;100568.97;7416095;19;1645;-64
2022/07/06 04:08:31;;;;;;;;;;;;;;;25.05;60.60;100560.47;7414969;19;1864;-63
2022/07/06 04:10:59;;;;;;;;;;;;;;;25.10;60.16;100566.22;7417534;19;1554;-64
2022/07/06 04:13:28;;;;;;;;;;;;;;;25.10;60.08;100572.44;7417634;19;1594;-62
2022/07/06 04:15:59;;;;;;;;;;;;;;;25.08;60.55;100565.56;7417115;19;1472;-64
2022/07/06 04:18:27;;;;;;;;;;;;;;;25.05;60.40;100560.47;7414120;19;1566;-64
2022/07/06 04:20:57;;;;;;;;;;;;;;;25.01;61.07;100566.28;7408468;19;1459;-64
2022/07/06 04:23:25;;;;;;;;;;;;;;;25.07;60.78;100582.78;7408546;19;1638;-64
2022/07/06 04:25:53;;;;;;;;;;;;;;;25.08;60.90;100584.50;7410195;19;1539;-64
2022/07/06 04:28:22;;;;;;;;;;;;;;;24.94;61.50;100575.28;7408832;19;1867;-63
2022/07/06 04:30:50;;;;;;;;;;;;;;;24.84;61.87;100580.94;7410522;19;1689;-64
2022/07/06 04:33:21;;;;;;;;;;;;;;;24.79;61.98;100565.25;7409638;19;1435;-63
2022/07/06 04:35:50;;;;;;;;;;;;;;;24.85;62.05;100574.50;7408186;19;1586;-64
2022/07/06 04:38:18;;;;;;;;;;;;;;;24.94;61.38;100572.56;7408440;19;1447;-63
2022/07/06 04:40:47;;;;;;;;;;;;;;;24.99;61.26;100576.44;7410025;19;1526;-64
2022/07/06 04:43:16;;;;;;;;;;;;;;;24.94;61.47;100596.94;7408585;19;1794;-63
2022/07/06 04:45:44;;;;;;;;;;;;;;;24.98;61.36;100587.44;7408714;19;1443;-64
2022/07/06 04:48:13;;;;;;;;;;;;;;;24.93;61.80;100592.53;7407194;19;1846;-64
2022/07/06 04:50:44;;;;;;;;;;;;;;;24.85;61.83;100574.50;7407793;19;1662;-63
2022/07/06 04:53:12;;;;;;;;;;;;;;;24.82;62.19;100585.66;7408952;19;1641;-64
2022/07/06 04:55:41;;;;;;;;;;;;;;;24.89;61.45;100581.25;7408567;19;1476;-64
2022/07/06 04:58:09;;;;;;;;;;;;;;;24.82;61.76;100582.97;7408285;19;1475;-64
2022/07/06 05:00:37;;;;;;;;;;;;;;;24.91;61.96;100589.16;7407682;19;1379;-60
2022/07/06 05:03:06;;;;;;;;;;;;;;;25.05;61.29;100584.84;7406789;19;1743;-62
2022/07/06 05:05:34;;;;;;;;;;;;;;;25.19;60.99;100592.19;7406930;19;1586;-62
2022/07/06 05:08:05;;;;;;;;;;;;;;;25.21;61.11;100579.31;7407767;19;1841;-65
2022/07/06 05:10:34;;;;;;;;;;;;;;;25.22;61.03;100581.03;7408096;19;1471;-63
2022/07/06 05:13:02;;;;;;;;;;;;;;;25.14;61.05;100595.41;7408511;19;1723;-63
2022/07/06 05:15:30;;;;;;;;;;;;;;;25.11;61.35;100589.53;7409150;19;1391;-68
2022/07/06 05:17:59;;;;;;;;;;;;;;;25.10;61.44;100587.84;7405959;19;1634;-64
2022/07/06 05:20:27;;;;;;;;;;;;;;;25.16;61.49;100606.06;7408816;19;1638;-64
2022/07/06 05:22:56;;;;;;;;;;;;;;;25.13;61.70;100609.16;7406495;19;1502;-71
2022/07/06 05:25:27;;;;;;;;;;;;;;;25.04;62.50;100612.94;7408545;19;1439;-68
2022/07/06 05:27:55;;;;;;;;;;;;;;;25.07;61.70;100609.84;7405301;19;1625;-68
2022/07/06 05:30:23;;;;;;;;;;;;;;;25.14;61.62;100621.66;7399007;19;1861;-65
2022/07/06 05:32:52;;;;;;;;;;;;;;;25.17;61.40;100619.44;7405575;19;1332;-62
2022/07/06 05:35:20;;;;;;;;;;;;;;;25.24;61.31;100624.97;7401787;19;1547;-65
2022/07/06 05:37:48;;;;;;;;;;;;;;;25.29;61.31;100635.28;7406971;19;1248;-61
2022/07/06 05:40:17;;;;;;;;;;;;;;;25.28;61.55;100628.19;7403462;19;1221;-58
2022/07/06 05:42:48;;;;;;;;;;;;;;;25.29;61.70;100625.31;7404581;19;1677;-61
2022/07/06 05:45:16;;;;;;;;;;;;;;;25.27;61.65;100613.81;7405250;19;1563;-61
2022/07/06 05:50:25;;;;;;;;;;;;;;;24.18;64.22;100616.34;7405618;19;1842;-61
2022/07/06 05:53:00;;;;;;;;;;;;;;;23.32;63.34;100647.44;7406905;19;1463;-61
2022/07/06 05:55:29;;;;;;;;;;;;;;;22.92;62.25;100650.84;7408151;19;1498;-65
2022/07/06 05:58:00;;;;;;;;;;;;;;;22.71;61.70;100654.84;7406862;19;1656;-65
2022/07/06 06:00:29;;;;;;;;;;;;;;;22.48;60.77;100656.41;7404943;19;1524;-65
2022/07/06 06:02:58;;;;;;;;;;;;;;;22.34;60.10;100656.03;7404266;19;1724;-62
2022/07/06 06:05:26;;;;;;;;;;;;;;;22.38;59.13;100664.63;7407890;19;1528;-61
2022/07/06 06:07:54;;;;;;;;;;;;;;;22.47;58.25;100655.59;7406500;19;1510;-61
2022/07/06 06:10:24;;;;;;;;;;;;;;;22.40;58.09;100662.59;7405517;19;1814;-64
2022/07/06 06:12:53;;;;;;;;;;;;;;;22.25;57.90;100651.59;7407946;19;1573;-61
2022/07/06 06:15:24;;;;;;;;;;;;;;;22.40;57.94;100668.00;7404184;19;1630;-61
2022/07/06 06:17:52;;;;;;;;;;;;;;;22.39;58.15;100660.94;7404950;19;1567;-65
2022/07/06 06:20:20;;;;;;;;;;;;;;;22.21;59.18;100651.03;7405809;19;1792;-66
2022/07/06 06:22:49;;;;;;;;;;;;;;;22.25;59.41;100651.59;7404952;19;1678;-64
2022/07/06 06:25:18;;;;;;;;;;;;;;;22.33;59.47;100661.56;7406830;19;1443;-65
2022/07/06 06:27:47;;;;;;;;;;;;;;;22.29;59.60;100655.66;7407132;19;1685;-61
2022/07/06 06:30:16;;;;;;;;;;;;;;;22.19;60.02;100663.81;7403864;19;1870;-60
2022/07/06 06:32:47;;;;;;;;;;;;;;;22.19;59.87;100650.34;7404068;19;1562;-61
2022/07/06 06:35:15;;;;;;;;;;;;;;;22.20;59.72;100656.56;7405844;19;1514;-65
2022/07/06 06:37:44;;;;;;;;;;;;;;;22.39;59.13;100658.25;7407882;19;1514;-62
2022/07/06 06:40:13;;;;;;;;;;;;;;;22.28;59.49;100663.91;7407160;19;1550;-61
2022/07/06 06:42:42;;;;;;;;;;;;;;;22.13;59.98;100652.84;7405167;19;1436;-64
2022/07/06 06:45:11;;;;;;;;;;;;;;;22.27;59.68;100651.44;7406038;19;1649;-61
2022/07/06 06:47:39;;;;;;;;;;;;;;;22.28;59.47;100669.28;7405531;19;1287;-61
2022/07/06 06:50:10;;;;;;;;;;;;;;;22.14;60.11;100652.66;7405177;19;1863;-66
2022/07/06 06:52:39;;;;;;;;;;;;;;;22.23;59.37;100640.94;7407365;19;1534;-66
2022/07/06 06:55:07;;;;;;;;;;;;;;;22.12;59.59;100649.28;7404796;19;1680;-66
2022/07/06 06:57:36;;;;;;;;;;;;;;;22.12;59.74;100646.59;7405871;19;1484;-61
2022/07/06 07:00:05;;;;;;;;;;;;;;;22.32;59.18;100643.72;7406040;19;1459;-66
2022/07/06 07:02:33;;;;;;;;;;;;;;;22.13;59.70;100645.59;7403300;19;1468;-61
2022/07/06 07:05:02;;;;;;;;;;;;;;;22.20;59.53;100646.66;7404531;19;1522;-61
2022/07/06 07:07:33;;;;;;;;;;;;;;;22.29;59.26;100644.88;7406266;19;1404;-61
2022/07/06 07:10:03;;;;;;;;;;;;;;;22.17;59.55;100646.97;7404276;19;1851;-66
2022/07/06 07:12:32;;;;;;;;;;;;;;;22.21;59.33;100648.34;7404577;19;1432;-65
2022/07/06 07:15:01;;;;;;;;;;;;;;;22.48;59.02;100653.72;7402703;19;1440;-66
2022/07/06 07:17:29;;;;;;;;;;;;;;;22.39;59.60;100650.16;7404605;19;1646;-60
2022/07/06 07:19:58;;;;;;;;;;;;;;;23.50;57.80;100649.16;7399182;19;1444;-61
2022/07/06 07:22:27;;;;;;;;;;;;;;;23.99;57.34;100636.50;7395958;19;1649;-64
2022/07/06 07:24:58;;;;;;;;;;;;;;;24.24;57.00;100630.19;7401623;19;1657;-63
2022/07/06 07:27:27;;;;;;;;;;;;;;;24.39;57.09;100642.81;7401117;19;1704;-59
2022/07/06 07:29:55;;;;;;;;;;;;;;;24.49;57.17;100649.84;7398547;19;1866;-58
2022/07/06 07:32:23;;;;;;;;;;;;;;;24.53;57.66;100646.66;7399934;19;1614;-61
2022/07/06 07:34:52;;;;;;;;;;;;;;;24.55;58.34;100625.72;7404223;19;1544;-58
2022/07/06 07:37:20;;;;;;;;;;;;;;;24.57;58.56;100636.31;7400992;19;1713;-57
2022/07/06 07:39:49;;;;;;;;;;;;;;;24.66;57.95;100632.56;7403405;19;1612;-59
2022/07/06 07:42:19;;;;;;;;;;;;;;;24.70;59.11;100641.19;7403324;19;1526;-60
2022/07/06 07:44:48;;;;;;;;;;;;;;;24.80;60.11;100641.81;7402818;19;1506;-60
2022/07/06 07:47:16;;;;;;;;;;;;;;;24.84;59.52;100647.72;7402082;19;1432;-59
2022/07/06 07:49:45;;;;;;;;;;;;;;;24.87;59.64;100648.19;7403128;19;1849;-64
2022/07/06 07:52:13;;;;;;;;;;;;;;;24.88;60.77;100635.50;7403577;19;1633;-59
2022/07/06 07:54:42;;;;;;;;;;;;;;;24.96;59.57;100649.81;7406421;19;1363;-55
2022/07/06 07:57:11;;;;;;;;;;;;;;;24.94;60.44;100618.56;7409751;19;1252;-60
2022/07/06 07:59:42;;;;;;;;;;;;;;;25.00;60.12;100632.22;7407758;19;1279;-62
2022/07/06 08:02:10;;;;;;;;;;;;;;;25.04;59.92;100640.81;7406438;19;1561;-56
2022/07/06 08:04:39;;;;;;;;;;;;;;;25.10;60.12;100637.41;7410159;19;1417;-56
2022/07/06 08:07:07;;;;;;;;;;;;;;;25.08;60.41;100639.44;7410259;19;1317;-62
2022/07/06 08:09:35;;;;;;;;;;;;;;;25.06;62.14;100624.41;7408204;19;1865;-64
2022/07/06 08:12:04;;;;;;;;;;;;;;;25.05;62.39;100636.25;7409280;19;1657;-63
2022/07/06 08:14:32;;;;;;;;;;;;;;;25.02;61.54;100623.91;7408692;19;1538;-62
2022/07/06 08:17:03;;;;;;;;;;;;;;;25.01;61.88;100628.50;7410157;19;1535;-59
2022/07/06 08:19:32;;;;;;;;;;;;;;;25.08;62.82;100650.25;7410020;19;1510;-63
2022/07/06 08:22:01;;;;;;;;;;;;;;;25.05;61.97;100638.94;7409886;19;1689;-60
2022/07/06 08:24:29;;;;;;;;;;;;;;;25.02;62.40;100641.00;7409552;19;1649;-64
2022/07/06 08:26:58;;;;;;;;;;;;;;;25.08;61.47;100641.31;7411261;19;1704;-63
2022/07/06 08:29:26;;;;;;;;;;;;;;;25.09;60.96;100634.84;7410634;19;1850;-57
2022/07/06 08:31:54;;;;;;;;;;;;;;;25.16;62.03;100641.25;7408989;19;1317;-58
2022/07/06 08:34:26;;;;;;;;;;;;;;;25.13;61.53;100633.50;7408867;19;1317;-61
2022/07/06 08:36:54;;;;;;;;;;;;;;;25.12;62.30;100631.81;7406758;19;1423;-59
2022/07/06 08:39:22;;;;;;;;;;;;;;;25.11;61.96;100646.34;7408395;19;1693;-66
2022/07/06 08:41:51;;;;;;;;;;;;;;;25.07;62.67;100640.47;7409548;19;1537;-65
2022/07/06 08:44:20;;;;;;;;;;;;;;;25.08;63.36;100644.84;7407397;19;1710;-58
2022/07/06 08:46:51;;;;;;;;;;;;;;;25.10;63.39;100639.25;7408663;19;1554;-57
2022/07/06 08:49:20;;;;;;;;;;;;;;;25.11;62.64;100638.22;7406476;19;1854;-56
2022/07/06 08:51:52;;;;;;;;;;;;;;;25.14;62.56;100629.75;7407835;19;1538;-58
2022/07/06 08:54:21;;;;;;;;;;;;;;;25.20;62.30;100653.41;7408484;19;1381;-57
2022/07/06 08:56:49;;;;;;;;;;;;;;;25.18;62.20;100633.78;7409293;19;1609;-58
2022/07/06 08:59:18;;;;;;;;;;;;;;;25.22;62.26;100642.44;7407676;19;1910;-56
2022/07/06 09:01:47;;;;;;;;;;;;;;;25.21;62.33;100625.34;7406061;19;1574;-56
2022/07/06 09:04:18;;;;;;;;;;;;;;;25.22;62.29;100637.84;7405214;19;1711;-60
2022/07/06 09:06:48;;;;;;;;;;;;;;;25.19;64.10;100619.25;7406455;19;1463;-59
2022/07/06 09:09:22;;;;;;;;;;;;;;;25.22;63.02;100621.63;7407271;19;1845;-60
2022/07/06 09:11:50;;;;;;;;;;;;;;;25.21;63.11;100625.34;7407998;19;1455;-62
2022/07/06 09:14:19;;;;;;;;;;;;;;;25.21;63.26;100630.75;7407320;19;1715;-60
2022/07/06 09:16:49;;;;;;;;;;;;;;;25.16;63.26;100630.44;7406018;19;2040;-61
2022/07/06 09:19:18;;;;;;;;;;;;;;;25.17;63.06;100624.00;7406135;19;1697;-62
2022/07/06 09:21:47;;;;;;;;;;;;;;;25.15;63.27;100632.28;7406897;19;1750;-60
2022/07/06 09:24:15;;;;;;;;;;;;;;;25.17;63.07;100641.06;7406876;19;1818;-63
2022/07/06 09:26:49;;;;;;;;;;;;;;;25.17;63.15;100632.13;7407983;19;1460;-60
2022/07/06 09:29:18;;;;;;;;;;;;;;;25.17;62.99;100618.59;7405899;19;1633;-59
2022/07/06 09:31:58;;;;;;;;;;;;;;;25.20;62.84;100635.28;7404889;19;1836;-62
2022/07/06 09:34:26;;;;;;;;;;;;;;;25.22;62.63;100640.56;7408147;19;1708;-60
2022/07/06 09:36:55;;;;;;;;;;;;;;;25.22;62.75;100645.97;7407105;19;1574;-62
2022/07/06 09:39:25;;;;;;;;;;;;;;;25.18;62.67;100631.09;7406758;19;1591;-61
2022/07/06 09:41:56;;;;;;;;;;;;;;;25.19;62.61;100638.19;7406857;19;1728;-61
2022/07/06 09:44:26;;;;;;;;;;;;;;;25.18;63.15;100639.22;7405494;19;1590;-62
2022/07/06 09:46:55;;;;;;;;;;;;;;;25.21;62.83;100649.69;7407348;19;1574;-61
2022/07/06 09:49:24;;;;;;;;;;;;;;;25.17;62.94;100632.97;7407577;19;1637;-59
2022/07/06 09:51:54;;;;;;;;;;;;;;;25.20;62.63;100650.69;7404728;19;2124;-62
2022/07/06 09:54:23;;;;;;;;;;;;;;;25.22;62.67;100645.97;7405714;19;1748;-60
2022/07/06 09:56:53;;;;;;;;;;;;;;;25.20;62.66;100637.16;7405275;19;1487;-62
2022/07/06 09:59:24;;;;;;;;;;;;;;;25.24;62.64;100643.09;7405183;19;1626;-59
2022/07/06 10:01:54;;;;;;;;;;;;;;;25.19;62.68;100632.78;7403826;19;1697;-61
2022/07/06 10:04:22;;;;;;;;;;;;;;;25.24;62.86;100643.94;7405614;19;1444;-59
2022/07/06 10:06:51;;;;;;;;;;;;;;;25.25;62.69;100645.63;7405637;19;1668;-60
2022/07/06 10:09:21;;;;;;;;;;;;;;;25.23;62.83;100622.44;7406297;19;1513;-59
2022/07/06 10:11:50;;;;;;;;;;;;;;;25.19;62.82;100630.91;7404218;19;1856;-60
2022/07/06 10:14:20;;;;;;;;;;;;;;;25.22;63.02;100629.75;7406373;19;1432;-61
2022/07/06 10:16:51;;;;;;;;;;;;;;;25.20;62.65;100632.59;7405104;19;1455;-59
2022/07/06 10:19:21;;;;;;;;;;;;;;;25.23;62.83;100626.03;7406036;19;1632;-61
2022/07/06 10:21:49;;;;;;;;;;;;;;;25.24;62.87;100621.44;7405422;19;1695;-60
2022/07/06 10:24:18;;;;;;;;;;;;;;;25.25;62.88;100628.53;7405267;19;1602;-61
2022/07/06 10:26:46;;;;;;;;;;;;;;;25.25;62.56;100620.41;7403364;19;1887;-61
2022/07/06 10:29:15;;;;;;;;;;;;;;;25.23;62.87;100625.16;7404820;19;1549;-59
2022/07/06 10:31:46;;;;;;;;;;;;;;;25.23;62.90;100628.72;7403352;19;1856;-61
2022/07/06 10:34:18;;;;;;;;;;;;;;;25.21;62.84;100611.81;7404842;19;1748;-60
2022/07/06 10:36:51;;;;;;;;;;;;;;;25.22;62.74;100618.06;7405315;19;1712;-61
2022/07/06 10:42:40;;;;;;;;;;;;;;;25.23;62.78;100608.91;7406641;19;1466;-60
2022/07/06 10:45:09;;;;;;;;;;;;;;;25.24;62.52;100616.88;7401654;19;1752;-59
2022/07/06 10:47:38;;;;;;;;;;;;;;;25.23;62.76;100615.19;7403734;19;1708;-60
2022/07/06 10:50:09;;;;;;;;;;;;;;;25.30;62.75;100599.06;7404200;19;1837;-60
2022/07/06 10:52:56;;;;;;;;;;;;;;;25.25;62.69;100617.69;7405583;19;1464;-59
2022/07/06 10:55:32;;;;;;;;;;;;;;;25.20;62.77;100610.09;7405006;19;1432;-62
2022/07/06 10:58:00;;;;;;;;;;;;;;;25.26;63.06;100616.69;7406510;19;1554;-59
2022/07/06 11:00:29;;;;;;;;;;;;;;;25.29;62.51;100608.22;7403956;19;1736;-62
2022/07/06 11:02:57;;;;;;;;;;;;;;;25.35;62.59;100611.03;7403041;19;1681;-61
2022/07/06 11:05:40;;;;;;;;;;;;;;;25.35;62.47;100618.31;7404314;19;1641;-57
2022/07/06 11:08:13;;;;;;;;;;;;;;;25.34;62.69;100600.38;7404060;19;1805;-63
2022/07/06 11:10:51;;;;;;;;;;;;;;;25.34;62.96;100603.09;7402403;19;1859;-59
2022/07/06 11:13:29;;;;;;;;;;;;;;;25.33;62.56;100594.13;7405013;19;1502;-64
2022/07/06 11:16:03;;;;;;;;;;;;;;;25.35;62.65;100585.84;7404959;19;1534;-58
2022/07/06 11:18:41;;;;;;;;;;;;;;;25.37;62.65;100597.31;7404408;19;1545;-61
2022/07/06 11:21:19;;;;;;;;;;;;;;;25.39;62.70;100592.56;7402956;19;1641;-58
2022/07/06 11:23:51;;;;;;;;;;;;;;;25.37;62.75;100590.03;7402812;19;1542;-58
2022/07/06 11:26:20;;;;;;;;;;;;;;;25.31;63.04;100577.25;7402545;19;1758;-61
2022/07/06 11:28:50;;;;;;;;;;;;;;;25.34;63.21;100597.69;7409037;19;1472;-64
2022/07/06 11:31:18;;;;;;;;;;;;;;;25.35;62.98;100592.09;7409761;19;1865;-60
2022/07/06 11:33:50;;;;;;;;;;;;;;;25.29;63.32;100578.44;7411866;19;1535;-59
2022/07/06 11:36:19;;;;;;;;;;;;;;;25.30;63.33;100570.13;7409282;19;1582;-59
2022/07/06 11:38:51;;;;;;;;;;;;;;;25.32;63.46;100586.19;7410179;19;1428;-60
2022/07/06 11:41:20;;;;;;;;;;;;;;;25.34;63.13;100579.56;7411489;19;1420;-62
2022/07/06 11:43:51;;;;;;;;;;;;;;;25.34;63.50;100576.84;7410630;19;1844;-63
2022/07/06 11:46:23;;;;;;;;;;;;;;;25.32;63.63;100570.78;7411118;19;1736;-61
2022/07/06 11:48:51;;;;;;;;;;;;;;;25.35;63.63;100570.44;7410246;19;1546;-62
2022/07/06 11:51:20;;;;;;;;;;;;;;;25.25;63.26;100564.44;7409380;19;1884;-62
2022/07/06 11:53:52;;;;;;;;;;;;;;;25.27;63.38;100562.38;7408691;19;1514;-60
2022/07/06 11:56:21;;;;;;;;;;;;;;;25.29;63.16;100567.63;7409688;19;1582;-63
2022/07/06 11:58:51;;;;;;;;;;;;;;;25.26;63.12;100559.84;7410954;19;1374;-63
2022/07/06 12:01:20;;;;;;;;;;;;;;;25.28;63.07;100563.22;7409519;19;1770;-62
2022/07/06 12:03:49;;;;;;;;;;;;;;;25.28;63.26;100563.22;7409444;19;1336;-61
2022/07/06 12:06:19;;;;;;;;;;;;;;;25.27;62.79;100565.09;7410951;19;1467;-62
2022/07/06 12:08:48;;;;;;;;;;;;;;;25.30;62.91;100572.00;7408859;19;1574;-62
2022/07/06 12:11:25;;;;;;;;;;;;;;;25.25;63.00;100548.19;7407859;19;1873;-61
2022/07/06 12:13:54;;;;;;;;;;;;;;;25.27;62.77;100556.97;7409039;19;1370;-61
2022/07/06 12:16:25;;;;;;;;;;;;;;;25.26;63.02;100547.16;7409021;19;1463;-62
2022/07/06 12:18:53;;;;;;;;;;;;;;;25.28;63.26;100552.41;7408211;19;1346;-60
2022/07/06 12:21:22;;;;;;;;;;;;;;;25.27;62.77;100551.56;7405791;19;1396;-62
2022/07/06 12:23:52;;;;;;;;;;;;;;;25.25;62.71;100542.78;7407835;19;1393;-61
2022/07/06 12:26:24;;;;;;;;;;;;;;;25.27;62.83;100546.16;7409706;19;1636;-61
2022/07/06 12:29:05;;;;;;;;;;;;;;;25.26;62.65;100554.44;7410340;19;1632;-62
2022/07/06 12:31:34;;;;;;;;;;;;;;;25.25;62.91;100542.78;7410496;19;1851;-61
2022/07/06 12:34:03;;;;;;;;;;;;;;;25.26;62.84;100539.03;7409638;19;1656;-61
2022/07/06 12:36:31;;;;;;;;;;;;;;;25.27;62.72;100534.47;7407857;19;2049;-60
2022/07/06 12:39:00;;;;;;;;;;;;;;;25.28;62.86;100547.81;7408461;19;1327;-60
2022/07/06 12:41:29;;;;;;;;;;;;;;;25.29;62.83;100533.28;7409482;19;1561;-60
2022/07/06 12:44:07;;;;;;;;;;;;;;;25.33;62.59;100537.31;7410082;19;1683;-61
2022/07/06 12:46:39;;;;;;;;;;;;;;;25.26;63.07;100527.38;7409883;19;1744;-62
2022/07/06 12:49:18;;;;;;;;;;;;;;;25.30;62.75;100524.13;7407767;19;1483;-61
2022/07/06 12:51:56;;;;;;;;;;;;;;;25.25;62.79;100521.13;7405563;19;1851;-61
2022/07/06 12:54:25;;;;;;;;;;;;;;;25.26;63.06;100517.38;7408669;19;1544;-61
2022/07/06 12:57:09;;;;;;;;;;;;;;;25.27;62.81;100497.44;7409949;19;1601;-61
2022/07/06 12:59:39;;;;;;;;;;;;;;;25.27;62.57;100516.38;7409577;19;1502;-63
2022/07/06 13:02:12;;;;;;;;;;;;;;;25.28;62.85;100509.94;7408117;19;1486;-60
2022/07/06 13:04:40;;;;;;;;;;;;;;;25.28;62.94;100519.91;7409659;19;1767;-62
2022/07/06 13:07:09;;;;;;;;;;;;;;;25.27;62.94;100516.38;7408424;19;1241;-62
2022/07/06 13:09:37;;;;;;;;;;;;;;;25.30;62.97;100507.88;7408852;19;1625;-62
2022/07/06 13:12:06;;;;;;;;;;;;;;;25.30;62.82;100507.88;7406578;19;1862;-61